Terminal Aerodrome Forecast
Issued by NWS

Home | Current Version | Previous Version | Text Only | Print | Product List | Glossary On
Versions: 1 2 3 4 5 6 7 8 9 10 11 12 13 14 15 16
000
FTUS41 KBTV 261725
TAFSLK
TAF
KSLK 261725Z 2618/2718 28009G16KT P6SM FEW035 SCT045 BKN060
     FM270100 VRB02KT P6SM SKC
     FM270800 00000KT 1SM BR FEW003 BKN005
     FM271300 24007KT P6SM FEW050=

USA.gov is the U.S. government's official web portal to all federal, state and local government web resources and services.